Grand Marsh, WI (53936)

5:52 AM CDT on August 31, 2014 (GMT -0500)
Oxford, wi | Change Station
CLOSE
Current Station
Personal Weather Station
Location: Oxford, WI
Elevation: 1043 ft
Nearby Weather Stations

Elev 1043 ft 43.75 °N, 89.70 °W | Updated 5 minutes ago

Overcast
Overcast
63.5 °F
Feels Like 63.5 °F
N
0.0
Wind Variable Wind from ENE
Gusts 2.0 mph

Today
High -- | Low -- °F
--% Chance of Precip.
Yesterday
High -- | Low -- °F
Precip. -- in
6:21 AM 7:36 PM
Waxing Crescent, 30% visible
Pressure 29.92 in
Visibility 10.0 miles
Clouds Mostly Cloudy 600 ft
Mostly Cloudy 1500 ft
Overcast 2000 ft
Dew Point 62 °F
Humidity 98%
Rainfall 0.00 in
Snow Depth Not available.
UV 0 out of 12
Pollen 1.70 out of 12
Air Quality Not available.
Flu Activity Not available.
METAR KDLL 311035Z AUTO 12003KT 10SM BKN006 BKN015 OVC020 18/17 A2992 RMK AO2 T01800170

More Conditions Fewer Conditions

Pressure 29.92 in
Visibility 10.0 miles
Clouds Mostly Cloudy 600 ft
Mostly Cloudy 1500 ft
Overcast 2000 ft
Dew Point 62 °F
Humidity 98%
Rainfall 0.00 in
Snow Depth Not available.
UV 0 out of 12
Pollen 1.70 out of 12
Air Quality Not available.
Flu Activity Not available.
METAR KDLL 311035Z AUTO 12003KT 10SM BKN006 BKN015 OVC020 18/17 A2992 RMK AO2 T01800170

More Conditions Fewer Conditions

10-Day Weather Forecast

Almanac

Astronomy

Aug. 31, 2014 Rise Set
Actual Time 6:21 AM CDT 7:36 PM CDT
Civil Twilight 5:51 AM CDT 8:06 PM CDT
Nautical Twilight 5:15 AM CDT 8:41 PM CDT
Astronomical Twilight 4:37 AM CDT 9:19 PM CDT
Moon 12:20 PM CDT 10:38 PM CDT
Length of Visible Light 14h 14m
Length of Day
13h 15m
Tomorrow will be 2m 52s shorter.
Waxing Crescent, 30% of the Moon is Illuminated
Today
Waxing Crescent
Sep 2
First Quarter
Sep 8
Full
Sep 15
Last Quarter
Sep 24
New

Today's Extremes

State Highs State Lows

Community

WunderPhotos

Upload Photos

1,748,837 photos uploaded!

Nearby

Snow Depth

Station Depth Elevation
No new snow has been reported.

Earthquake Activity

City Distance Mag. Time & Date
No recent earthquake activity has been reported nearby.
Minimum magnitude displayed is 2.5.

Coastal Water Temperatures

Place Temperature
No Stations Reporting

Nearby Weather Stations